createdAt,value
2023-05-09T00:02:39.543Z,15.70
2023-05-09T00:05:07.757Z,15.60
2023-05-09T00:10:01.838Z,15.50
2023-05-09T00:17:24.311Z,15.30
2023-05-09T00:19:52.852Z,13.10
2023-05-09T00:22:23.595Z,15.30
2023-05-09T00:32:12.030Z,15.20
2023-05-09T01:01:38.870Z,14.60
2023-05-09T01:04:05.722Z,14.60
2023-05-09T01:06:57.896Z,14.50
2023-05-09T01:09:32.011Z,14.50
2023-05-09T01:12:16.447Z,14.50
2023-05-09T01:15:02.123Z,14.50
2023-05-09T01:17:36.484Z,14.50
2023-05-09T01:20:23.903Z,14.50
2023-05-09T01:23:20.558Z,14.50
2023-05-09T01:25:59.027Z,14.50
2023-05-09T01:29:03.474Z,14.40
2023-05-09T01:31:32.088Z,14.30
2023-05-09T01:34:02.484Z,14.20
2023-05-09T01:36:35.123Z,14.20
2023-05-09T01:39:04.169Z,14.10
2023-05-09T01:41:34.456Z,14.10
2023-05-09T01:44:05.362Z,14.00
2023-05-09T01:49:01.188Z,13.90
2023-05-09T01:51:29.528Z,13.80
2023-05-09T01:53:57.891Z,13.80
2023-05-09T01:56:27.316Z,13.80
2023-05-09T01:58:56.139Z,13.90
2023-05-09T02:01:24.495Z,13.80
2023-05-09T02:03:54.105Z,13.80
2023-05-09T02:06:23.218Z,13.80
2023-05-09T02:08:51.485Z,13.80
2023-05-09T02:11:18.654Z,13.80
2023-05-09T02:23:34.748Z,13.70
2023-05-09T02:26:01.983Z,13.60
2023-05-09T02:30:58.706Z,13.60
2023-05-09T02:38:21.395Z,13.50
2023-05-09T02:40:49.370Z,13.50
2023-05-09T02:58:12.605Z,13.40
2023-05-09T03:15:24.404Z,13.20
2023-05-09T03:32:39.870Z,13.10
2023-05-09T04:29:22.665Z,13.70
2023-05-09T04:34:24.773Z,13.90
2023-05-09T04:39:19.823Z,13.90
2023-05-09T04:46:51.117Z,14.10
2023-05-09T05:16:21.839Z,14.60
2023-05-09T05:21:16.583Z,14.90
2023-05-09T05:50:49.909Z,15.30
2023-05-09T05:53:19.614Z,15.40
2023-05-09T06:05:47.004Z,16.00
2023-05-09T06:10:40.773Z,16.20
2023-05-09T06:30:26.083Z,17.00
2023-05-09T06:47:39.405Z,17.60
2023-05-09T06:57:27.458Z,17.80
2023-05-09T07:19:49.979Z,18.50
2023-05-09T07:22:16.688Z,18.60
2023-05-09T07:27:13.936Z,18.80
2023-05-09T07:32:08.419Z,18.60
2023-05-09T07:34:36.022Z,18.60
2023-05-09T07:46:51.446Z,18.70
2023-05-09T07:54:12.252Z,18.60
2023-05-09T08:04:00.393Z,18.60
2023-05-09T08:16:17.393Z,18.30
2023-05-09T08:23:38.381Z,18.40
2023-05-09T08:28:32.070Z,18.50
2023-05-09T08:30:58.707Z,18.40
2023-05-09T08:35:54.047Z,18.50
2023-05-09T08:38:21.240Z,18.50
2023-05-09T08:40:48.260Z,18.50
2023-05-09T08:43:18.093Z,18.50
2023-05-09T08:45:51.747Z,18.50
2023-05-09T08:48:19.318Z,18.40
2023-05-09T08:53:14.121Z,18.50
2023-05-09T08:58:09.527Z,18.60
2023-05-09T09:00:38.685Z,18.60
2023-05-09T09:03:07.405Z,18.60
2023-05-09T09:05:41.890Z,18.70
2023-05-09T09:08:10.754Z,18.70
2023-05-09T09:10:42.631Z,18.70
2023-05-09T09:13:11.265Z,18.80
2023-05-09T09:15:38.565Z,18.80
2023-05-09T09:18:10.161Z,18.90
2023-05-09T09:20:53.098Z,19.00
2023-05-09T09:23:24.173Z,19.10
2023-05-09T09:26:01.505Z,19.10
2023-05-09T09:30:55.433Z,19.40
2023-05-09T09:33:23.963Z,19.50
2023-05-09T09:35:52.208Z,19.60
2023-05-09T09:38:19.967Z,19.70
2023-05-09T09:41:04.694Z,19.70
2023-05-09T09:43:32.281Z,19.80
2023-05-09T09:46:03.623Z,19.90
2023-05-09T09:48:35.070Z,20.00
2023-05-09T09:51:10.289Z,20.10
2023-05-09T09:53:41.320Z,20.10
2023-05-09T10:01:11.012Z,19.10
2023-05-09T10:03:39.434Z,17.50
2023-05-09T10:06:10.873Z,20.50
2023-05-09T10:11:04.774Z,20.60
2023-05-09T10:16:00.083Z,20.70
2023-05-09T10:18:31.168Z,20.70
2023-05-09T10:21:03.893Z,20.70
2023-05-09T10:23:32.488Z,20.80
2023-05-09T10:26:17.629Z,20.80
2023-05-09T10:28:47.997Z,20.90
2023-05-09T10:31:27.600Z,21.00
2023-05-09T10:33:58.619Z,21.10
2023-05-09T10:36:25.465Z,21.10
2023-05-09T10:38:54.861Z,21.20
2023-05-09T10:41:22.456Z,21.20
2023-05-09T10:43:49.146Z,21.20
2023-05-09T10:46:17.475Z,21.20
2023-05-09T10:48:44.717Z,21.10
2023-05-09T10:51:12.519Z,21.10
2023-05-09T10:53:46.025Z,21.20
2023-05-09T10:56:29.945Z,21.30
2023-05-09T10:58:56.683Z,21.30
2023-05-09T11:01:38.902Z,21.30
2023-05-09T11:04:11.028Z,21.40
2023-05-09T11:06:49.420Z,21.40
2023-05-09T11:09:42.678Z,21.30
2023-05-09T11:12:12.947Z,21.30
2023-05-09T11:14:46.959Z,21.40
2023-05-09T11:17:20.784Z,21.30
2023-05-09T11:19:47.480Z,21.40
2023-05-09T11:22:19.564Z,21.30
2023-05-09T11:24:47.828Z,21.30
2023-05-09T11:27:22.557Z,21.40
2023-05-09T11:29:54.627Z,21.40
2023-05-09T11:32:27.177Z,21.40
2023-05-09T11:35:07.280Z,21.50
2023-05-09T11:40:05.427Z,21.50
2023-05-09T11:42:32.524Z,21.80
2023-05-09T11:44:59.470Z,21.80
2023-05-09T11:47:27.279Z,21.80
2023-05-09T11:49:54.006Z,21.90
2023-05-09T11:52:21.714Z,22.00
2023-05-09T11:54:49.487Z,22.00
2023-05-09T11:57:19.013Z,22.00
2023-05-09T11:59:46.156Z,22.00
2023-05-09T12:02:13.483Z,22.00
2023-05-09T12:07:07.482Z,22.10
2023-05-09T12:09:37.810Z,22.20
2023-05-09T12:12:12.247Z,22.20
2023-05-09T12:14:39.679Z,22.20
2023-05-09T12:17:07.910Z,22.30
2023-05-09T12:19:34.885Z,22.30
2023-05-09T12:22:05.275Z,22.40
2023-05-09T12:24:32.123Z,22.50
2023-05-09T12:26:59.883Z,22.60
2023-05-09T12:29:27.169Z,22.50
2023-05-09T12:31:54.448Z,22.40
2023-05-09T12:34:21.654Z,22.50
2023-05-09T12:36:50.775Z,22.40
2023-05-09T12:39:19.339Z,22.50
2023-05-09T12:41:57.392Z,22.50
2023-05-09T12:44:29.310Z,22.50
2023-05-09T12:47:03.668Z,22.50
2023-05-09T12:49:31.528Z,22.70
2023-05-09T12:52:01.646Z,22.70
2023-05-09T12:54:30.050Z,22.70
2023-05-09T12:56:59.575Z,22.70
2023-05-09T12:59:28.143Z,22.70
2023-05-09T13:02:00.573Z,22.90
2023-05-09T13:04:28.427Z,22.80
2023-05-09T13:06:57.416Z,22.90
2023-05-09T13:09:25.696Z,22.90
2023-05-09T13:11:53.028Z,22.80
2023-05-09T13:14:21.669Z,22.80
2023-05-09T13:16:48.670Z,22.80
2023-05-09T13:19:16.249Z,22.80
2023-05-09T13:21:42.878Z,22.80
2023-05-09T13:24:09.509Z,22.90
2023-05-09T13:26:36.142Z,22.90
2023-05-09T13:29:02.897Z,22.90
2023-05-09T13:31:30.048Z,23.00
2023-05-09T13:33:56.796Z,23.10
2023-05-09T13:36:23.723Z,23.10
2023-05-09T13:38:50.393Z,23.10
2023-05-09T13:41:19.896Z,23.00
2023-05-09T13:43:46.645Z,22.30
2023-05-09T13:46:13.530Z,22.90
2023-05-09T13:48:40.316Z,22.80
2023-05-09T13:51:07.800Z,22.80
2023-05-09T13:53:35.342Z,22.80
2023-05-09T13:56:03.535Z,22.80
2023-05-09T13:58:30.215Z,22.90
2023-05-09T14:00:56.816Z,22.80
2023-05-09T14:03:23.479Z,22.90
2023-05-09T14:05:50.728Z,22.90
2023-05-09T14:08:17.537Z,22.80
2023-05-09T14:10:44.579Z,22.80
2023-05-09T14:13:12.392Z,22.70
2023-05-09T14:18:07.028Z,22.80
2023-05-09T14:20:36.542Z,22.80
2023-05-09T14:23:03.426Z,22.80
2023-05-09T14:25:30.080Z,22.70
2023-05-09T14:27:56.709Z,22.60
2023-05-09T14:30:25.561Z,22.60
2023-05-09T14:32:52.497Z,22.70
2023-05-09T14:35:19.173Z,22.60
2023-05-09T14:40:13.345Z,22.60
2023-05-09T14:42:40.093Z,22.50
2023-05-09T14:45:07.563Z,22.50
2023-05-09T14:47:34.346Z,22.40
2023-05-09T14:50:01.301Z,22.40
2023-05-09T14:52:28.727Z,22.40
2023-05-09T14:54:55.491Z,22.30
2023-05-09T14:57:22.269Z,22.40
2023-05-09T14:59:48.934Z,22.50
2023-05-09T15:02:15.839Z,22.50
2023-05-09T15:04:43.741Z,22.50
2023-05-09T15:07:11.740Z,22.50
2023-05-09T15:09:38.333Z,22.50
2023-05-09T15:14:32.101Z,22.50
2023-05-09T15:17:01.361Z,22.60
2023-05-09T15:19:31.395Z,22.60
2023-05-09T15:22:01.018Z,22.60
2023-05-09T15:24:27.733Z,22.50
2023-05-09T15:26:54.390Z,24.70
2023-05-09T15:29:23.824Z,22.50
2023-05-09T15:31:50.608Z,22.50
2023-05-09T15:34:17.232Z,22.50
2023-05-09T15:36:43.849Z,22.50
2023-05-09T15:39:10.619Z,22.40
2023-05-09T15:41:37.274Z,22.30
2023-05-09T15:44:03.940Z,22.20
2023-05-09T15:46:31.417Z,22.10
2023-05-09T15:48:58.357Z,21.90
2023-05-09T15:51:25.285Z,21.90
2023-05-09T15:53:51.962Z,21.70
2023-05-09T15:56:18.656Z,21.70
2023-05-09T15:58:45.765Z,21.70
2023-05-09T16:01:14.329Z,21.70
2023-05-09T16:03:41.607Z,21.70
2023-05-09T16:06:08.335Z,21.70
2023-05-09T16:11:03.274Z,21.70
2023-05-09T16:13:30.072Z,21.60
2023-05-09T16:15:56.955Z,21.60
2023-05-09T16:18:23.794Z,21.60
2023-05-09T16:23:17.684Z,21.60
2023-05-09T16:25:44.930Z,21.50
2023-05-09T16:30:38.631Z,21.40
2023-05-09T16:33:05.273Z,21.40
2023-05-09T16:35:32.008Z,21.40
2023-05-09T16:37:58.695Z,21.40
2023-05-09T16:40:25.324Z,21.30
2023-05-09T16:42:53.552Z,21.30
2023-05-09T16:45:20.248Z,21.30
2023-05-09T16:47:46.838Z,21.30
2023-05-09T16:50:13.609Z,21.30
2023-05-09T16:52:40.329Z,21.30
2023-05-09T16:55:07.589Z,21.30
2023-05-09T16:57:34.419Z,21.20
2023-05-09T17:00:01.082Z,21.20
2023-05-09T17:02:27.733Z,21.20
2023-05-09T17:04:54.642Z,21.20
2023-05-09T17:09:49.444Z,21.20
2023-05-09T17:12:18.016Z,21.20
2023-05-09T17:14:45.601Z,21.20
2023-05-09T17:17:13.148Z,21.10
2023-05-09T17:19:39.807Z,21.20
2023-05-09T17:22:07.851Z,21.00
2023-05-09T17:29:30.571Z,25.80
2023-05-09T17:32:00.748Z,21.00
2023-05-09T17:34:28.515Z,21.00
2023-05-09T17:36:55.266Z,21.00
2023-05-09T17:39:22.018Z,21.00
2023-05-09T17:41:48.632Z,20.90
2023-05-09T17:46:42.665Z,20.70
2023-05-09T17:49:10.923Z,20.70
2023-05-09T17:51:37.586Z,20.60
2023-05-09T17:56:32.365Z,20.50
2023-05-09T17:58:59.718Z,20.50
2023-05-09T18:01:26.772Z,20.60
2023-05-09T18:11:15.114Z,20.30
2023-05-09T18:13:41.908Z,20.20
2023-05-09T18:21:04.868Z,19.90
2023-05-09T18:25:58.604Z,19.80
2023-05-09T18:28:25.722Z,19.70
2023-05-09T18:31:00.495Z,19.80
2023-05-09T18:33:28.575Z,19.80
2023-05-09T18:35:55.545Z,19.80
2023-05-09T18:38:22.592Z,19.70
2023-05-09T18:40:51.587Z,19.70
2023-05-09T18:48:16.609Z,19.50
2023-05-09T18:53:10.510Z,19.50
2023-05-09T18:58:04.337Z,19.40
2023-05-09T19:02:58.323Z,19.30
2023-05-09T19:05:25.870Z,19.20
2023-05-09T19:07:54.105Z,19.10
2023-05-09T19:10:20.892Z,19.10
2023-05-09T19:17:43.507Z,18.80
2023-05-09T19:20:10.946Z,18.80
2023-05-09T19:30:04.846Z,18.60
2023-05-09T19:32:31.700Z,18.60
2023-05-09T19:42:19.665Z,18.40
2023-05-09T19:52:09.365Z,18.30
2023-05-09T19:54:35.936Z,18.20
2023-05-09T19:57:06.126Z,18.20
2023-05-09T20:01:59.899Z,18.10
2023-05-09T20:14:15.576Z,18.00
2023-05-09T20:16:43.831Z,17.90
2023-05-09T20:19:14.123Z,17.90
2023-05-09T20:24:08.750Z,17.90
2023-05-09T20:36:24.923Z,17.80
2023-05-09T20:38:51.622Z,19.30
2023-05-09T20:58:32.782Z,17.50
2023-05-09T21:00:59.494Z,17.60
2023-05-09T21:03:26.509Z,17.50
2023-05-09T21:05:53.666Z,17.40
2023-05-09T21:18:08.712Z,17.20
2023-05-09T21:23:02.391Z,17.30
2023-05-09T21:37:46.023Z,17.30
2023-05-09T21:40:13.143Z,17.30
2023-05-09T21:45:08.232Z,17.20
2023-05-09T22:04:48.039Z,17.10
2023-05-09T22:09:42.081Z,17.00
2023-05-09T22:27:09.134Z,16.90
2023-05-09T22:32:04.269Z,16.80
2023-05-09T22:36:58.062Z,16.80
2023-05-09T23:30:54.400Z,16.50
2023-05-09T23:35:48.801Z,16.50
2023-05-09T23:40:46.142Z,16.50
2023-05-09T23:43:13.506Z,16.40
2023-05-09T23:48:07.804Z,16.50
2023-05-09T23:57:59.454Z,16.40
